sensor_id;sensor_type;location;lat;lon;timestamp;P1;durP1;ratioP1;P2;durP2;ratioP2
50880;SDS011;36858;47.832;-3.800;2024-03-02T00:00:20;8.43;;;1.33;;
50880;SDS011;36858;47.832;-3.800;2024-03-02T00:02:48;3.83;;;0.90;;
50880;SDS011;36858;47.832;-3.800;2024-03-02T00:05:18;4.33;;;1.00;;
50880;SDS011;36858;47.832;-3.800;2024-03-02T00:07:52;6.20;;;1.23;;
50880;SDS011;36858;47.832;-3.800;2024-03-02T00:10:33;5.90;;;0.93;;
50880;SDS011;36858;47.832;-3.800;2024-03-02T00:13:03;5.37;;;1.07;;
50880;SDS011;36858;47.832;-3.800;2024-03-02T00:18:13;4.03;;;1.27;;
50880;SDS011;36858;47.832;-3.800;2024-03-02T00:20:41;5.83;;;1.17;;
50880;SDS011;36858;47.832;-3.800;2024-03-02T00:23:09;4.03;;;1.10;;
50880;SDS011;36858;47.832;-3.800;2024-03-02T00:25:41;10.00;;;1.20;;
50880;SDS011;36858;47.832;-3.800;2024-03-02T00:28:20;6.80;;;1.50;;
50880;SDS011;36858;47.832;-3.800;2024-03-02T00:30:52;3.53;;;1.07;;
50880;SDS011;36858;47.832;-3.800;2024-03-02T00:33:21;5.47;;;1.10;;
50880;SDS011;36858;47.832;-3.800;2024-03-02T00:35:49;3.57;;;0.97;;
50880;SDS011;36858;47.832;-3.800;2024-03-02T00:38:16;7.27;;;1.30;;
50880;SDS011;36858;47.832;-3.800;2024-03-02T00:40:43;5.23;;;1.47;;
50880;SDS011;36858;47.832;-3.800;2024-03-02T00:44:12;4.17;;;1.03;;
50880;SDS011;36858;47.832;-3.800;2024-03-02T00:46:12;5.17;;;1.33;;
50880;SDS011;36858;47.832;-3.800;2024-03-02T00:48:43;9.27;;;1.83;;
50880;SDS011;36858;47.832;-3.800;2024-03-02T00:51:26;7.20;;;1.83;;
50880;SDS011;36858;47.832;-3.800;2024-03-02T00:53:55;5.63;;;1.50;;
50880;SDS011;36858;47.832;-3.800;2024-03-02T00:56:24;6.90;;;1.47;;
50880;SDS011;36858;47.832;-3.800;2024-03-02T00:58:51;8.97;;;1.33;;
50880;SDS011;36858;47.832;-3.800;2024-03-02T01:01:19;7.63;;;1.67;;
50880;SDS011;36858;47.832;-3.800;2024-03-02T01:03:46;9.07;;;1.53;;
50880;SDS011;36858;47.832;-3.800;2024-03-02T01:06:14;4.87;;;1.50;;
50880;SDS011;36858;47.832;-3.800;2024-03-02T01:08:42;3.33;;;1.00;;
50880;SDS011;36858;47.832;-3.800;2024-03-02T01:11:09;4.23;;;1.57;;
50880;SDS011;36858;47.832;-3.800;2024-03-02T01:13:36;7.60;;;1.27;;
50880;SDS011;36858;47.832;-3.800;2024-03-02T01:16:03;3.63;;;1.00;;
50880;SDS011;36858;47.832;-3.800;2024-03-02T01:18:30;5.07;;;1.03;;
50880;SDS011;36858;47.832;-3.800;2024-03-02T01:20:57;7.33;;;1.70;;
50880;SDS011;36858;47.832;-3.800;2024-03-02T01:23:24;5.27;;;1.23;;
50880;SDS011;36858;47.832;-3.800;2024-03-02T01:25:52;6.27;;;1.00;;
50880;SDS011;36858;47.832;-3.800;2024-03-02T01:28:19;5.90;;;0.97;;
50880;SDS011;36858;47.832;-3.800;2024-03-02T01:30:47;3.23;;;1.00;;
50880;SDS011;36858;47.832;-3.800;2024-03-02T01:33:15;3.53;;;1.10;;
50880;SDS011;36858;47.832;-3.800;2024-03-02T01:35:43;5.27;;;1.13;;
50880;SDS011;36858;47.832;-3.800;2024-03-02T01:38:10;4.30;;;1.13;;
50880;SDS011;36858;47.832;-3.800;2024-03-02T01:40:37;4.73;;;1.37;;
50880;SDS011;36858;47.832;-3.800;2024-03-02T01:43:07;5.83;;;1.30;;
50880;SDS011;36858;47.832;-3.800;2024-03-02T01:45:34;5.27;;;1.00;;
50880;SDS011;36858;47.832;-3.800;2024-03-02T01:48:03;4.17;;;0.90;;
50880;SDS011;36858;47.832;-3.800;2024-03-02T01:50:34;4.60;;;1.17;;
50880;SDS011;36858;47.832;-3.800;2024-03-02T01:53:01;8.27;;;1.07;;
50880;SDS011;36858;47.832;-3.800;2024-03-02T01:55:32;5.90;;;0.90;;
50880;SDS011;36858;47.832;-3.800;2024-03-02T01:58:01;7.07;;;1.20;;
50880;SDS011;36858;47.832;-3.800;2024-03-02T02:00:28;6.07;;;1.00;;
50880;SDS011;36858;47.832;-3.800;2024-03-02T02:02:55;3.93;;;1.30;;
50880;SDS011;36858;47.832;-3.800;2024-03-02T02:05:24;3.40;;;0.90;;
50880;SDS011;36858;47.832;-3.800;2024-03-02T02:07:51;5.67;;;1.00;;
50880;SDS011;36858;47.832;-3.800;2024-03-02T02:10:18;3.93;;;0.90;;
50880;SDS011;36858;47.832;-3.800;2024-03-02T02:12:45;2.00;;;0.80;;
50880;SDS011;36858;47.832;-3.800;2024-03-02T02:15:28;2.33;;;0.70;;
50880;SDS011;36858;47.832;-3.800;2024-03-02T02:17:56;2.00;;;0.60;;
50880;SDS011;36858;47.832;-3.800;2024-03-02T02:20:24;4.20;;;1.00;;
50880;SDS011;36858;47.832;-3.800;2024-03-02T02:22:55;3.53;;;0.87;;
50880;SDS011;36858;47.832;-3.800;2024-03-02T02:25:26;1.93;;;0.47;;
50880;SDS011;36858;47.832;-3.800;2024-03-02T02:27:54;3.40;;;1.00;;
50880;SDS011;36858;47.832;-3.800;2024-03-02T02:30:26;4.13;;;0.80;;
50880;SDS011;36858;47.832;-3.800;2024-03-02T02:32:56;3.60;;;1.10;;
50880;SDS011;36858;47.832;-3.800;2024-03-02T02:35:23;2.03;;;0.80;;
50880;SDS011;36858;47.832;-3.800;2024-03-02T02:37:51;2.93;;;0.77;;
50880;SDS011;36858;47.832;-3.800;2024-03-02T02:40:19;1.60;;;0.67;;
50880;SDS011;36858;47.832;-3.800;2024-03-02T02:42:46;2.47;;;0.63;;
50880;SDS011;36858;47.832;-3.800;2024-03-02T02:45:14;3.07;;;0.47;;
50880;SDS011;36858;47.832;-3.800;2024-03-02T02:47:42;2.53;;;0.70;;
50880;SDS011;36858;47.832;-3.800;2024-03-02T02:50:09;3.67;;;0.93;;
50880;SDS011;36858;47.832;-3.800;2024-03-02T02:52:38;4.37;;;0.80;;
50880;SDS011;36858;47.832;-3.800;2024-03-02T02:55:07;2.30;;;0.77;;
50880;SDS011;36858;47.832;-3.800;2024-03-02T02:57:35;4.43;;;0.80;;
50880;SDS011;36858;47.832;-3.800;2024-03-02T03:00:08;2.97;;;0.90;;
50880;SDS011;36858;47.832;-3.800;2024-03-02T03:02:45;10.60;;;1.17;;
50880;SDS011;36858;47.832;-3.800;2024-03-02T03:05:15;5.80;;;1.00;;
50880;SDS011;36858;47.832;-3.800;2024-03-02T03:07:43;2.50;;;0.83;;
50880;SDS011;36858;47.832;-3.800;2024-03-02T03:10:11;4.40;;;1.03;;
50880;SDS011;36858;47.832;-3.800;2024-03-02T03:12:40;4.70;;;1.50;;
50880;SDS011;36858;47.832;-3.800;2024-03-02T03:15:10;4.87;;;1.10;;
50880;SDS011;36858;47.832;-3.800;2024-03-02T03:17:38;7.73;;;0.73;;
50880;SDS011;36858;47.832;-3.800;2024-03-02T03:20:05;3.10;;;1.10;;
50880;SDS011;36858;47.832;-3.800;2024-03-02T03:22:37;6.10;;;1.33;;
50880;SDS011;36858;47.832;-3.800;2024-03-02T03:25:04;3.17;;;1.00;;
50880;SDS011;36858;47.832;-3.800;2024-03-02T03:27:32;3.20;;;1.10;;
50880;SDS011;36858;47.832;-3.800;2024-03-02T03:29:59;3.03;;;1.10;;
50880;SDS011;36858;47.832;-3.800;2024-03-02T03:32:26;3.10;;;1.07;;
50880;SDS011;36858;47.832;-3.800;2024-03-02T03:34:53;3.50;;;0.80;;
50880;SDS011;36858;47.832;-3.800;2024-03-02T03:37:19;6.53;;;1.20;;
50880;SDS011;36858;47.832;-3.800;2024-03-02T03:39:46;4.37;;;1.73;;
50880;SDS011;36858;47.832;-3.800;2024-03-02T03:42:13;5.00;;;1.00;;
50880;SDS011;36858;47.832;-3.800;2024-03-02T03:44:40;2.10;;;0.50;;
50880;SDS011;36858;47.832;-3.800;2024-03-02T03:47:08;2.70;;;1.00;;
50880;SDS011;36858;47.832;-3.800;2024-03-02T03:49:35;2.90;;;0.83;;
50880;SDS011;36858;47.832;-3.800;2024-03-02T03:52:02;2.10;;;0.80;;
50880;SDS011;36858;47.832;-3.800;2024-03-02T03:54:30;3.13;;;0.70;;
50880;SDS011;36858;47.832;-3.800;2024-03-02T03:56:57;1.47;;;0.70;;
50880;SDS011;36858;47.832;-3.800;2024-03-02T03:59:24;3.70;;;0.77;;
50880;SDS011;36858;47.832;-3.800;2024-03-02T04:01:51;2.93;;;0.70;;
50880;SDS011;36858;47.832;-3.800;2024-03-02T04:04:19;2.33;;;0.70;;
50880;SDS011;36858;47.832;-3.800;2024-03-02T04:06:46;1.83;;;0.70;;
50880;SDS011;36858;47.832;-3.800;2024-03-02T04:09:13;3.07;;;0.63;;
50880;SDS011;36858;47.832;-3.800;2024-03-02T04:11:40;2.90;;;0.60;;
50880;SDS011;36858;47.832;-3.800;2024-03-02T04:14:07;1.43;;;0.70;;
50880;SDS011;36858;47.832;-3.800;2024-03-02T04:16:34;1.57;;;0.60;;
50880;SDS011;36858;47.832;-3.800;2024-03-02T04:19:01;4.63;;;1.00;;
50880;SDS011;36858;47.832;-3.800;2024-03-02T04:21:28;1.63;;;0.83;;
50880;SDS011;36858;47.832;-3.800;2024-03-02T04:23:55;2.30;;;0.90;;
50880;SDS011;36858;47.832;-3.800;2024-03-02T04:26:26;3.40;;;0.70;;
50880;SDS011;36858;47.832;-3.800;2024-03-02T04:28:53;2.60;;;1.20;;
50880;SDS011;36858;47.832;-3.800;2024-03-02T04:31:20;2.10;;;0.70;;
50880;SDS011;36858;47.832;-3.800;2024-03-02T04:33:47;3.57;;;0.73;;
50880;SDS011;36858;47.832;-3.800;2024-03-02T04:36:14;3.50;;;0.97;;
50880;SDS011;36858;47.832;-3.800;2024-03-02T04:38:41;3.70;;;0.70;;
50880;SDS011;36858;47.832;-3.800;2024-03-02T04:41:09;7.73;;;0.87;;
50880;SDS011;36858;47.832;-3.800;2024-03-02T04:43:35;2.20;;;0.80;;
50880;SDS011;36858;47.832;-3.800;2024-03-02T04:46:02;4.57;;;1.43;;
50880;SDS011;36858;47.832;-3.800;2024-03-02T04:48:30;4.63;;;1.17;;
50880;SDS011;36858;47.832;-3.800;2024-03-02T04:50:57;6.97;;;1.40;;
50880;SDS011;36858;47.832;-3.800;2024-03-02T04:53:24;5.40;;;1.90;;
50880;SDS011;36858;47.832;-3.800;2024-03-02T04:55:51;4.77;;;1.20;;
50880;SDS011;36858;47.832;-3.800;2024-03-02T04:58:21;4.07;;;1.30;;
50880;SDS011;36858;47.832;-3.800;2024-03-02T05:00:48;7.10;;;1.50;;
50880;SDS011;36858;47.832;-3.800;2024-03-02T05:03:15;6.03;;;1.23;;
50880;SDS011;36858;47.832;-3.800;2024-03-02T05:05:42;3.50;;;0.97;;
50880;SDS011;36858;47.832;-3.800;2024-03-02T05:08:09;5.07;;;1.07;;
50880;SDS011;36858;47.832;-3.800;2024-03-02T05:10:38;4.47;;;1.20;;
50880;SDS011;36858;47.832;-3.800;2024-03-02T05:13:05;4.63;;;0.90;;
50880;SDS011;36858;47.832;-3.800;2024-03-02T05:15:32;3.93;;;0.97;;
50880;SDS011;36858;47.832;-3.800;2024-03-02T05:17:59;4.77;;;1.80;;
50880;SDS011;36858;47.832;-3.800;2024-03-02T05:20:29;4.53;;;1.10;;
50880;SDS011;36858;47.832;-3.800;2024-03-02T05:22:55;2.87;;;1.03;;
50880;SDS011;36858;47.832;-3.800;2024-03-02T05:25:22;5.47;;;1.30;;
50880;SDS011;36858;47.832;-3.800;2024-03-02T05:27:49;2.27;;;1.20;;
50880;SDS011;36858;47.832;-3.800;2024-03-02T05:30:16;5.27;;;1.23;;
50880;SDS011;36858;47.832;-3.800;2024-03-02T05:32:43;4.90;;;0.90;;
50880;SDS011;36858;47.832;-3.800;2024-03-02T05:35:10;3.87;;;0.90;;
50880;SDS011;36858;47.832;-3.800;2024-03-02T05:37:39;3.00;;;1.10;;
50880;SDS011;36858;47.832;-3.800;2024-03-02T05:40:06;2.73;;;0.70;;
50880;SDS011;36858;47.832;-3.800;2024-03-02T05:42:34;4.30;;;1.63;;
50880;SDS011;36858;47.832;-3.800;2024-03-02T05:45:01;2.70;;;1.17;;
50880;SDS011;36858;47.832;-3.800;2024-03-02T05:47:28;2.60;;;0.97;;
50880;SDS011;36858;47.832;-3.800;2024-03-02T05:49:55;2.30;;;0.73;;
50880;SDS011;36858;47.832;-3.800;2024-03-02T05:52:22;1.90;;;0.70;;
50880;SDS011;36858;47.832;-3.800;2024-03-02T05:54:48;1.40;;;0.70;;
50880;SDS011;36858;47.832;-3.800;2024-03-02T05:57:16;2.67;;;0.83;;
50880;SDS011;36858;47.832;-3.800;2024-03-02T05:59:43;2.27;;;0.60;;
50880;SDS011;36858;47.832;-3.800;2024-03-02T06:02:10;3.20;;;0.80;;
50880;SDS011;36858;47.832;-3.800;2024-03-02T06:04:37;1.37;;;0.90;;
50880;SDS011;36858;47.832;-3.800;2024-03-02T06:07:07;2.20;;;0.80;;
50880;SDS011;36858;47.832;-3.800;2024-03-02T06:09:33;3.60;;;0.90;;
50880;SDS011;36858;47.832;-3.800;2024-03-02T06:12:00;1.80;;;0.80;;
50880;SDS011;36858;47.832;-3.800;2024-03-02T06:14:27;1.57;;;0.77;;
50880;SDS011;36858;47.832;-3.800;2024-03-02T06:16:54;2.13;;;0.70;;
50880;SDS011;36858;47.832;-3.800;2024-03-02T06:19:21;1.43;;;0.80;;
50880;SDS011;36858;47.832;-3.800;2024-03-02T06:21:48;2.53;;;0.60;;
50880;SDS011;36858;47.832;-3.800;2024-03-02T06:24:15;1.37;;;0.70;;
50880;SDS011;36858;47.832;-3.800;2024-03-02T06:26:42;2.13;;;0.60;;
50880;SDS011;36858;47.832;-3.800;2024-03-02T06:29:09;1.00;;;0.70;;
50880;SDS011;36858;47.832;-3.800;2024-03-02T06:31:36;2.40;;;0.77;;
50880;SDS011;36858;47.832;-3.800;2024-03-02T06:34:02;2.90;;;0.77;;
50880;SDS011;36858;47.832;-3.800;2024-03-02T06:36:31;3.17;;;1.00;;
50880;SDS011;36858;47.832;-3.800;2024-03-02T06:38:58;1.47;;;0.70;;
50880;SDS011;36858;47.832;-3.800;2024-03-02T06:41:25;3.03;;;1.60;;
50880;SDS011;36858;47.832;-3.800;2024-03-02T06:43:53;4.03;;;1.00;;
50880;SDS011;36858;47.832;-3.800;2024-03-02T06:46:26;3.10;;;1.10;;
50880;SDS011;36858;47.832;-3.800;2024-03-02T06:48:53;2.33;;;0.90;;
50880;SDS011;36858;47.832;-3.800;2024-03-02T06:51:20;2.67;;;1.00;;
50880;SDS011;36858;47.832;-3.800;2024-03-02T06:53:47;3.37;;;1.10;;
50880;SDS011;36858;47.832;-3.800;2024-03-02T06:56:14;6.90;;;1.67;;
50880;SDS011;36858;47.832;-3.800;2024-03-02T06:58:41;3.87;;;1.43;;
50880;SDS011;36858;47.832;-3.800;2024-03-02T07:01:09;8.67;;;1.87;;
50880;SDS011;36858;47.832;-3.800;2024-03-02T07:03:36;4.53;;;1.30;;
50880;SDS011;36858;47.832;-3.800;2024-03-02T07:06:03;11.83;;;1.40;;
50880;SDS011;36858;47.832;-3.800;2024-03-02T07:08:31;5.83;;;1.70;;
50880;SDS011;36858;47.832;-3.800;2024-03-02T07:10:58;5.33;;;1.43;;
50880;SDS011;36858;47.832;-3.800;2024-03-02T07:13:25;4.10;;;1.17;;
50880;SDS011;36858;47.832;-3.800;2024-03-02T07:15:52;7.53;;;1.20;;
50880;SDS011;36858;47.832;-3.800;2024-03-02T07:18:27;4.73;;;1.30;;
50880;SDS011;36858;47.832;-3.800;2024-03-02T07:20:55;6.33;;;1.73;;
50880;SDS011;36858;47.832;-3.800;2024-03-02T07:23:24;5.63;;;1.37;;
50880;SDS011;36858;47.832;-3.800;2024-03-02T07:25:53;2.43;;;1.10;;
50880;SDS011;36858;47.832;-3.800;2024-03-02T07:28:26;6.30;;;1.47;;
50880;SDS011;36858;47.832;-3.800;2024-03-02T07:31:00;2.87;;;1.40;;
50880;SDS011;36858;47.832;-3.800;2024-03-02T07:33:28;7.23;;;1.00;;
50880;SDS011;36858;47.832;-3.800;2024-03-02T07:35:55;3.47;;;1.50;;
50880;SDS011;36858;47.832;-3.800;2024-03-02T07:38:22;4.60;;;1.47;;
50880;SDS011;36858;47.832;-3.800;2024-03-02T07:40:50;3.73;;;1.20;;
50880;SDS011;36858;47.832;-3.800;2024-03-02T07:43:17;6.50;;;1.10;;
50880;SDS011;36858;47.832;-3.800;2024-03-02T07:45:44;5.20;;;1.10;;
50880;SDS011;36858;47.832;-3.800;2024-03-02T07:48:12;2.77;;;1.40;;
50880;SDS011;36858;47.832;-3.800;2024-03-02T07:50:39;4.60;;;1.33;;
50880;SDS011;36858;47.832;-3.800;2024-03-02T07:53:06;3.90;;;1.23;;
50880;SDS011;36858;47.832;-3.800;2024-03-02T07:55:34;3.13;;;1.23;;
50880;SDS011;36858;47.832;-3.800;2024-03-02T07:58:01;2.13;;;0.93;;
50880;SDS011;36858;47.832;-3.800;2024-03-02T08:00:28;4.40;;;1.17;;
50880;SDS011;36858;47.832;-3.800;2024-03-02T08:02:55;3.87;;;1.30;;
50880;SDS011;36858;47.832;-3.800;2024-03-02T08:05:22;3.33;;;1.40;;
50880;SDS011;36858;47.832;-3.800;2024-03-02T08:07:49;2.00;;;0.97;;
50880;SDS011;36858;47.832;-3.800;2024-03-02T08:10:19;6.30;;;1.53;;
50880;SDS011;36858;47.832;-3.800;2024-03-02T08:12:46;7.07;;;3.03;;
50880;SDS011;36858;47.832;-3.800;2024-03-02T08:15:13;6.33;;;1.40;;
50880;SDS011;36858;47.832;-3.800;2024-03-02T08:17:40;5.13;;;1.40;;
50880;SDS011;36858;47.832;-3.800;2024-03-02T08:20:16;6.13;;;1.83;;
50880;SDS011;36858;47.832;-3.800;2024-03-02T08:22:43;5.67;;;1.50;;
50880;SDS011;36858;47.832;-3.800;2024-03-02T08:25:10;5.43;;;1.57;;
50880;SDS011;36858;47.832;-3.800;2024-03-02T08:27:37;3.17;;;1.20;;
50880;SDS011;36858;47.832;-3.800;2024-03-02T08:30:06;7.57;;;1.80;;
50880;SDS011;36858;47.832;-3.800;2024-03-02T08:32:35;7.87;;;1.87;;
50880;SDS011;36858;47.832;-3.800;2024-03-02T08:35:02;6.23;;;1.40;;
50880;SDS011;36858;47.832;-3.800;2024-03-02T08:37:31;5.57;;;1.30;;
50880;SDS011;36858;47.832;-3.800;2024-03-02T08:39:58;5.10;;;1.47;;
50880;SDS011;36858;47.832;-3.800;2024-03-02T08:42:26;7.53;;;1.70;;
50880;SDS011;36858;47.832;-3.800;2024-03-02T08:44:53;3.30;;;1.63;;
50880;SDS011;36858;47.832;-3.800;2024-03-02T08:47:21;5.90;;;1.57;;
50880;SDS011;36858;47.832;-3.800;2024-03-02T08:49:48;6.53;;;2.07;;
50880;SDS011;36858;47.832;-3.800;2024-03-02T08:52:16;4.47;;;1.57;;
50880;SDS011;36858;47.832;-3.800;2024-03-02T08:54:43;5.83;;;1.70;;
50880;SDS011;36858;47.832;-3.800;2024-03-02T08:57:11;5.03;;;1.97;;
50880;SDS011;36858;47.832;-3.800;2024-03-02T08:59:38;3.37;;;1.50;;
50880;SDS011;36858;47.832;-3.800;2024-03-02T09:02:06;2.83;;;1.13;;
50880;SDS011;36858;47.832;-3.800;2024-03-02T09:04:34;2.37;;;1.13;;
50880;SDS011;36858;47.832;-3.800;2024-03-02T09:07:02;4.77;;;1.47;;
50880;SDS011;36858;47.832;-3.800;2024-03-02T09:09:29;2.93;;;1.30;;
50880;SDS011;36858;47.832;-3.800;2024-03-02T09:11:58;4.00;;;1.70;;
50880;SDS011;36858;47.832;-3.800;2024-03-02T09:14:26;2.70;;;1.10;;
50880;SDS011;36858;47.832;-3.800;2024-03-02T09:16:53;2.97;;;1.20;;
50880;SDS011;36858;47.832;-3.800;2024-03-02T09:19:20;4.17;;;1.50;;
50880;SDS011;36858;47.832;-3.800;2024-03-02T09:21:47;4.07;;;1.30;;
50880;SDS011;36858;47.832;-3.800;2024-03-02T09:24:14;5.00;;;1.30;;
50880;SDS011;36858;47.832;-3.800;2024-03-02T09:26:43;5.50;;;1.53;;
50880;SDS011;36858;47.832;-3.800;2024-03-02T09:29:10;5.90;;;1.37;;
50880;SDS011;36858;47.832;-3.800;2024-03-02T09:31:41;4.00;;;1.77;;
50880;SDS011;36858;47.832;-3.800;2024-03-02T09:34:08;7.17;;;1.50;;
50880;SDS011;36858;47.832;-3.800;2024-03-02T09:36:35;5.87;;;1.30;;
50880;SDS011;36858;47.832;-3.800;2024-03-02T09:39:02;4.13;;;1.50;;
50880;SDS011;36858;47.832;-3.800;2024-03-02T09:41:31;4.93;;;1.83;;
50880;SDS011;36858;47.832;-3.800;2024-03-02T09:43:59;4.67;;;1.97;;
50880;SDS011;36858;47.832;-3.800;2024-03-02T09:46:26;4.40;;;1.53;;
50880;SDS011;36858;47.832;-3.800;2024-03-02T09:48:54;2.33;;;1.10;;
50880;SDS011;36858;47.832;-3.800;2024-03-02T09:51:21;2.70;;;1.30;;
50880;SDS011;36858;47.832;-3.800;2024-03-02T09:53:48;3.40;;;0.87;;
50880;SDS011;36858;47.832;-3.800;2024-03-02T09:56:15;2.03;;;0.77;;
50880;SDS011;36858;47.832;-3.800;2024-03-02T09:58:42;1.47;;;0.83;;
50880;SDS011;36858;47.832;-3.800;2024-03-02T10:01:10;4.77;;;1.50;;
50880;SDS011;36858;47.832;-3.800;2024-03-02T10:03:37;5.47;;;1.37;;
50880;SDS011;36858;47.832;-3.800;2024-03-02T10:06:21;4.17;;;1.20;;
50880;SDS011;36858;47.832;-3.800;2024-03-02T10:08:48;9.00;;;2.20;;
50880;SDS011;36858;47.832;-3.800;2024-03-02T10:14:11;5.57;;;1.20;;
50880;SDS011;36858;47.832;-3.800;2024-03-02T10:16:40;4.10;;;1.10;;
50880;SDS011;36858;47.832;-3.800;2024-03-02T10:19:17;5.43;;;0.90;;
50880;SDS011;36858;47.832;-3.800;2024-03-02T10:21:54;3.90;;;1.20;;
50880;SDS011;36858;47.832;-3.800;2024-03-02T10:24:21;2.93;;;0.90;;
50880;SDS011;36858;47.832;-3.800;2024-03-02T10:26:49;3.00;;;0.83;;
50880;SDS011;36858;47.832;-3.800;2024-03-02T10:29:16;3.50;;;1.03;;
50880;SDS011;36858;47.832;-3.800;2024-03-02T10:31:44;1.30;;;0.60;;
50880;SDS011;36858;47.832;-3.800;2024-03-02T10:34:15;2.00;;;0.70;;
50880;SDS011;36858;47.832;-3.800;2024-03-02T10:36:45;1.93;;;0.83;;
50880;SDS011;36858;47.832;-3.800;2024-03-02T10:39:12;1.10;;;0.53;;
50880;SDS011;36858;47.832;-3.800;2024-03-02T10:41:40;1.93;;;0.80;;
50880;SDS011;36858;47.832;-3.800;2024-03-02T10:44:08;2.10;;;0.60;;
50880;SDS011;36858;47.832;-3.800;2024-03-02T10:46:36;2.70;;;0.60;;
50880;SDS011;36858;47.832;-3.800;2024-03-02T10:49:04;2.53;;;0.63;;
50880;SDS011;36858;47.832;-3.800;2024-03-02T10:51:34;2.00;;;0.90;;
50880;SDS011;36858;47.832;-3.800;2024-03-02T10:54:03;1.50;;;0.63;;
50880;SDS011;36858;47.832;-3.800;2024-03-02T10:56:32;2.37;;;0.90;;
50880;SDS011;36858;47.832;-3.800;2024-03-02T11:01:40;1.53;;;0.60;;
50880;SDS011;36858;47.832;-3.800;2024-03-02T11:04:09;1.87;;;0.50;;
50880;SDS011;36858;47.832;-3.800;2024-03-02T11:06:38;0.67;;;0.37;;
50880;SDS011;36858;47.832;-3.800;2024-03-02T11:09:16;1.20;;;0.47;;
50880;SDS011;36858;47.832;-3.800;2024-03-02T11:11:49;2.73;;;0.70;;
50880;SDS011;36858;47.832;-3.800;2024-03-02T11:14:44;1.80;;;0.47;;
50880;SDS011;36858;47.832;-3.800;2024-03-02T11:17:11;5.43;;;0.70;;
50880;SDS011;36858;47.832;-3.800;2024-03-02T11:19:42;6.13;;;1.00;;
50880;SDS011;36858;47.832;-3.800;2024-03-02T11:22:09;0.87;;;0.53;;
50880;SDS011;36858;47.832;-3.800;2024-03-02T11:24:36;2.93;;;1.23;;
50880;SDS011;36858;47.832;-3.800;2024-03-02T11:27:05;2.93;;;0.50;;
50880;SDS011;36858;47.832;-3.800;2024-03-02T11:32:13;4.10;;;0.60;;
50880;SDS011;36858;47.832;-3.800;2024-03-02T11:34:42;1.47;;;0.47;;
50880;SDS011;36858;47.832;-3.800;2024-03-02T11:37:12;0.97;;;0.40;;
50880;SDS011;36858;47.832;-3.800;2024-03-02T11:39:39;2.00;;;0.63;;
50880;SDS011;36858;47.832;-3.800;2024-03-02T11:42:06;2.37;;;0.50;;
50880;SDS011;36858;47.832;-3.800;2024-03-02T11:44:36;3.10;;;0.53;;
50880;SDS011;36858;47.832;-3.800;2024-03-02T11:47:07;0.80;;;0.30;;
50880;SDS011;36858;47.832;-3.800;2024-03-02T11:49:42;0.57;;;0.40;;
50880;SDS011;36858;47.832;-3.800;2024-03-02T11:52:12;0.20;;;0.20;;
50880;SDS011;36858;47.832;-3.800;2024-03-02T11:54:42;3.63;;;0.67;;
50880;SDS011;36858;47.832;-3.800;2024-03-02T11:57:18;1.00;;;0.63;;
50880;SDS011;36858;47.832;-3.800;2024-03-02T11:59:46;0.50;;;0.33;;
50880;SDS011;36858;47.832;-3.800;2024-03-02T12:02:17;1.53;;;0.37;;
50880;SDS011;36858;47.832;-3.800;2024-03-02T12:04:47;3.20;;;0.40;;
50880;SDS011;36858;47.832;-3.800;2024-03-02T12:07:18;1.23;;;0.40;;
50880;SDS011;36858;47.832;-3.800;2024-03-02T12:09:47;1.37;;;0.60;;
50880;SDS011;36858;47.832;-3.800;2024-03-02T12:12:14;2.13;;;0.70;;
50880;SDS011;36858;47.832;-3.800;2024-03-02T12:14:54;3.93;;;0.80;;
50880;SDS011;36858;47.832;-3.800;2024-03-02T12:17:26;3.10;;;0.93;;
50880;SDS011;36858;47.832;-3.800;2024-03-02T12:19:53;3.10;;;1.07;;
50880;SDS011;36858;47.832;-3.800;2024-03-02T12:22:20;5.83;;;1.37;;
50880;SDS011;36858;47.832;-3.800;2024-03-02T12:24:48;4.23;;;1.10;;
50880;SDS011;36858;47.832;-3.800;2024-03-02T12:27:15;3.47;;;0.90;;
50880;SDS011;36858;47.832;-3.800;2024-03-02T12:29:42;2.73;;;0.80;;
50880;SDS011;36858;47.832;-3.800;2024-03-02T12:32:09;1.67;;;0.70;;
50880;SDS011;36858;47.832;-3.800;2024-03-02T12:34:37;3.60;;;0.90;;
50880;SDS011;36858;47.832;-3.800;2024-03-02T12:37:04;0.73;;;0.50;;
50880;SDS011;36858;47.832;-3.800;2024-03-02T12:39:31;2.10;;;0.70;;
50880;SDS011;36858;47.832;-3.800;2024-03-02T12:41:59;1.57;;;0.43;;
50880;SDS011;36858;47.832;-3.800;2024-03-02T12:44:26;1.80;;;0.70;;
50880;SDS011;36858;47.832;-3.800;2024-03-02T12:46:53;1.53;;;0.60;;
50880;SDS011;36858;47.832;-3.800;2024-03-02T12:49:24;0.77;;;0.60;;
50880;SDS011;36858;47.832;-3.800;2024-03-02T12:51:52;1.53;;;0.60;;
50880;SDS011;36858;47.832;-3.800;2024-03-02T12:54:21;2.13;;;1.20;;
50880;SDS011;36858;47.832;-3.800;2024-03-02T12:56:49;5.13;;;0.90;;
50880;SDS011;36858;47.832;-3.800;2024-03-02T12:59:20;3.30;;;0.70;;
50880;SDS011;36858;47.832;-3.800;2024-03-02T13:01:55;2.93;;;1.10;;
50880;SDS011;36858;47.832;-3.800;2024-03-02T13:04:26;2.27;;;0.63;;
50880;SDS011;36858;47.832;-3.800;2024-03-02T13:06:55;2.80;;;0.80;;
50880;SDS011;36858;47.832;-3.800;2024-03-02T13:09:24;1.87;;;0.50;;
50880;SDS011;36858;47.832;-3.800;2024-03-02T13:11:51;1.90;;;0.60;;
50880;SDS011;36858;47.832;-3.800;2024-03-02T13:14:21;1.37;;;0.70;;
50880;SDS011;36858;47.832;-3.800;2024-03-02T13:16:48;1.60;;;0.53;;
50880;SDS011;36858;47.832;-3.800;2024-03-02T13:19:18;2.67;;;0.83;;
50880;SDS011;36858;47.832;-3.800;2024-03-02T13:21:48;2.10;;;0.50;;
50880;SDS011;36858;47.832;-3.800;2024-03-02T13:24:17;0.60;;;0.50;;
50880;SDS011;36858;47.832;-3.800;2024-03-02T13:26:43;2.30;;;0.80;;
50880;SDS011;36858;47.832;-3.800;2024-03-02T13:29:10;2.43;;;0.90;;
50880;SDS011;36858;47.832;-3.800;2024-03-02T13:31:38;1.63;;;0.83;;
50880;SDS011;36858;47.832;-3.800;2024-03-02T13:34:06;1.57;;;1.00;;
50880;SDS011;36858;47.832;-3.800;2024-03-02T13:36:33;2.03;;;0.67;;
50880;SDS011;36858;47.832;-3.800;2024-03-02T13:39:00;1.73;;;0.70;;
50880;SDS011;36858;47.832;-3.800;2024-03-02T13:41:27;3.53;;;0.80;;
50880;SDS011;36858;47.832;-3.800;2024-03-02T13:43:54;1.47;;;0.80;;
50880;SDS011;36858;47.832;-3.800;2024-03-02T13:46:21;2.13;;;0.60;;
50880;SDS011;36858;47.832;-3.800;2024-03-02T13:48:48;3.17;;;0.50;;
50880;SDS011;36858;47.832;-3.800;2024-03-02T13:51:15;1.30;;;0.87;;
50880;SDS011;36858;47.832;-3.800;2024-03-02T13:53:42;4.10;;;0.80;;
50880;SDS011;36858;47.832;-3.800;2024-03-02T13:56:09;3.33;;;0.47;;
50880;SDS011;36858;47.832;-3.800;2024-03-02T13:58:36;2.80;;;0.60;;
50880;SDS011;36858;47.832;-3.800;2024-03-02T14:01:03;4.30;;;0.90;;
50880;SDS011;36858;47.832;-3.800;2024-03-02T14:03:32;3.43;;;0.80;;
50880;SDS011;36858;47.832;-3.800;2024-03-02T14:05:59;2.10;;;0.87;;
50880;SDS011;36858;47.832;-3.800;2024-03-02T14:08:25;2.53;;;0.80;;
50880;SDS011;36858;47.832;-3.800;2024-03-02T14:10:53;1.50;;;0.70;;
50880;SDS011;36858;47.832;-3.800;2024-03-02T14:13:22;1.83;;;0.50;;
50880;SDS011;36858;47.832;-3.800;2024-03-02T14:15:49;1.67;;;0.40;;
50880;SDS011;36858;47.832;-3.800;2024-03-02T14:18:16;1.80;;;0.67;;
50880;SDS011;36858;47.832;-3.800;2024-03-02T14:20:43;0.50;;;0.40;;
50880;SDS011;36858;47.832;-3.800;2024-03-02T14:23:12;2.23;;;0.80;;
50880;SDS011;36858;47.832;-3.800;2024-03-02T14:25:39;2.00;;;0.67;;
50880;SDS011;36858;47.832;-3.800;2024-03-02T14:28:05;3.23;;;0.60;;
50880;SDS011;36858;47.832;-3.800;2024-03-02T14:30:52;2.60;;;0.60;;
50880;SDS011;36858;47.832;-3.800;2024-03-02T14:33:20;1.60;;;0.60;;
50880;SDS011;36858;47.832;-3.800;2024-03-02T14:35:47;2.20;;;0.60;;
50880;SDS011;36858;47.832;-3.800;2024-03-02T14:38:14;1.97;;;0.60;;
50880;SDS011;36858;47.832;-3.800;2024-03-02T14:40:41;1.23;;;1.13;;
50880;SDS011;36858;47.832;-3.800;2024-03-02T14:43:09;1.90;;;0.90;;
50880;SDS011;36858;47.832;-3.800;2024-03-02T14:45:36;3.20;;;0.90;;
50880;SDS011;36858;47.832;-3.800;2024-03-02T14:48:03;1.27;;;0.70;;
50880;SDS011;36858;47.832;-3.800;2024-03-02T14:50:31;1.93;;;0.80;;